createdAt,value
2018-09-26T00:01:31.971Z,3.73
2018-09-26T00:04:07.950Z,4.40
2018-09-26T00:06:39.759Z,3.53
2018-09-26T00:09:12.106Z,3.90
2018-09-26T00:11:42.345Z,3.43
2018-09-26T00:14:13.271Z,3.80
2018-09-26T00:16:44.823Z,3.70
2018-09-26T00:19:16.042Z,3.70
2018-09-26T00:21:46.887Z,3.63
2018-09-26T00:24:18.925Z,3.80
2018-09-26T00:26:49.648Z,3.77
2018-09-26T00:29:21.502Z,3.40
2018-09-26T00:31:51.588Z,3.60
2018-09-26T00:34:22.975Z,3.67
2018-09-26T00:36:53.099Z,3.87
2018-09-26T00:39:23.016Z,3.80
2018-09-26T00:41:52.856Z,4.00
2018-09-26T00:44:23.178Z,4.00
2018-09-26T00:46:53.925Z,4.17
2018-09-26T00:49:24.214Z,3.40
2018-09-26T00:51:54.072Z,3.10
2018-09-26T00:54:24.808Z,3.60
2018-09-26T00:56:54.872Z,3.43
2018-09-26T00:59:24.994Z,3.50
2018-09-26T01:01:55.589Z,3.43
2018-09-26T01:04:27.749Z,3.67
2018-09-26T01:06:59.873Z,3.33
2018-09-26T01:09:30.957Z,3.60
2018-09-26T01:12:04.965Z,3.00
2018-09-26T01:14:36.784Z,3.60
2018-09-26T01:17:06.839Z,3.87
2018-09-26T01:19:37.875Z,3.50
2018-09-26T01:22:08.355Z,3.63
2018-09-26T01:24:38.367Z,3.57
2018-09-26T01:27:09.072Z,3.23
2018-09-26T01:29:39.596Z,3.13
2018-09-26T01:32:10.060Z,3.47
2018-09-26T01:34:40.355Z,3.10
2018-09-26T01:37:10.549Z,3.00
2018-09-26T01:39:41.330Z,3.20
2018-09-26T01:42:11.638Z,3.40
2018-09-26T01:44:41.763Z,3.93
2018-09-26T01:47:12.591Z,3.20
2018-09-26T01:49:43.688Z,3.33
2018-09-26T01:52:14.013Z,2.97
2018-09-26T01:54:44.279Z,3.57
2018-09-26T01:57:15.937Z,3.07
2018-09-26T01:59:47.200Z,3.30
2018-09-26T02:02:22.688Z,3.00
2018-09-26T02:04:52.904Z,3.00
2018-09-26T02:07:23.273Z,2.70
2018-09-26T02:09:54.471Z,3.13
2018-09-26T02:12:24.842Z,3.07
2018-09-26T02:14:54.977Z,3.00
2018-09-26T02:17:25.425Z,2.87
2018-09-26T02:19:57.175Z,3.03
2018-09-26T02:22:27.747Z,3.20
2018-09-26T02:24:58.510Z,3.13
2018-09-26T02:27:29.957Z,3.10
2018-09-26T02:30:03.867Z,3.37
2018-09-26T02:32:35.995Z,3.93
2018-09-26T02:35:07.381Z,3.47
2018-09-26T02:37:37.766Z,4.03
2018-09-26T02:40:08.396Z,3.30
2018-09-26T02:42:39.711Z,3.40
2018-09-26T02:45:12.137Z,3.50
2018-09-26T02:47:42.414Z,3.73
2018-09-26T02:50:13.416Z,3.80
2018-09-26T02:52:43.922Z,3.40
2018-09-26T02:55:14.752Z,2.83
2018-09-26T02:57:46.007Z,3.30
2018-09-26T03:00:17.508Z,3.30
2018-09-26T03:02:49.356Z,3.57
2018-09-26T03:05:19.781Z,3.53
2018-09-26T03:07:50.715Z,3.50
2018-09-26T03:10:20.980Z,3.30
2018-09-26T03:12:51.216Z,3.67
2018-09-26T03:15:21.491Z,3.60
2018-09-26T03:17:51.609Z,3.43
2018-09-26T03:20:23.757Z,3.70
2018-09-26T03:22:55.069Z,3.93
2018-09-26T03:25:27.615Z,3.60
2018-09-26T03:27:57.838Z,3.77
2018-09-26T03:30:29.077Z,3.70
2018-09-26T03:33:01.375Z,3.87
2018-09-26T03:35:31.683Z,3.73
2018-09-26T03:38:02.432Z,3.63
2018-09-26T03:40:34.348Z,3.87
2018-09-26T03:43:07.163Z,3.40
2018-09-26T03:45:38.215Z,3.83
2018-09-26T03:48:08.473Z,4.13
2018-09-26T03:50:38.848Z,3.80
2018-09-26T03:53:09.312Z,3.80
2018-09-26T03:55:39.907Z,3.87
2018-09-26T03:58:10.381Z,3.90
2018-09-26T04:00:41.574Z,3.73
2018-09-26T04:03:19.706Z,4.33
2018-09-26T04:05:53.376Z,3.70
2018-09-26T04:08:34.263Z,3.53
2018-09-26T04:11:08.114Z,3.87
2018-09-26T04:13:38.172Z,3.80
2018-09-26T04:16:09.860Z,3.57
2018-09-26T04:18:41.171Z,3.50
2018-09-26T04:21:11.090Z,3.70
2018-09-26T04:23:41.715Z,3.90
2018-09-26T04:26:13.038Z,4.10
2018-09-26T04:28:43.212Z,3.80
2018-09-26T04:31:15.295Z,3.77
2018-09-26T04:33:47.335Z,3.87
2018-09-26T04:36:18.795Z,3.60
2018-09-26T04:38:50.539Z,3.60
2018-09-26T04:41:21.879Z,4.03
2018-09-26T04:43:52.250Z,3.77
2018-09-26T04:46:22.687Z,4.00
2018-09-26T04:48:52.995Z,4.10
2018-09-26T04:51:22.922Z,4.20
2018-09-26T04:53:53.982Z,3.83
2018-09-26T04:56:25.411Z,4.40
2018-09-26T04:58:58.895Z,4.10
2018-09-26T05:01:29.196Z,4.00
2018-09-26T05:04:04.817Z,3.90
2018-09-26T05:06:36.688Z,4.30
2018-09-26T05:09:09.365Z,4.10
2018-09-26T05:11:39.793Z,4.10
2018-09-26T05:14:27.097Z,4.23
2018-09-26T05:16:59.359Z,3.80
2018-09-26T05:19:31.091Z,4.13
2018-09-26T05:22:04.082Z,4.37
2018-09-26T05:24:35.743Z,4.13
2018-09-26T05:27:06.166Z,3.83
2018-09-26T05:29:47.083Z,4.03
2018-09-26T05:32:23.124Z,4.30
2018-09-26T05:34:53.418Z,4.10
2018-09-26T05:37:23.400Z,4.60
2018-09-26T05:39:55.761Z,4.57
2018-09-26T05:42:26.136Z,3.90
2018-09-26T05:44:56.579Z,6.33
2018-09-26T05:47:28.342Z,6.10
2018-09-26T05:49:59.455Z,5.77
2018-09-26T05:52:35.862Z,4.80
2018-09-26T05:55:09.326Z,4.60
2018-09-26T05:57:46.253Z,4.30
2018-09-26T06:00:19.198Z,4.20
2018-09-26T06:02:50.183Z,3.80
2018-09-26T06:05:20.972Z,4.50
2018-09-26T06:07:51.231Z,5.27
2018-09-26T06:10:22.151Z,5.00
2018-09-26T06:12:54.753Z,4.63
2018-09-26T06:15:25.572Z,4.60
2018-09-26T06:17:56.912Z,4.80
2018-09-26T06:20:27.835Z,4.87
2018-09-26T06:22:57.788Z,4.87
2018-09-26T06:25:28.092Z,4.83
2018-09-26T06:28:00.199Z,4.83
2018-09-26T06:30:30.553Z,4.80
2018-09-26T06:33:05.507Z,4.67
2018-09-26T06:35:36.626Z,4.80
2018-09-26T06:38:07.096Z,4.87
2018-09-26T06:40:37.386Z,4.53
2018-09-26T06:43:08.835Z,4.67
2018-09-26T06:45:39.145Z,4.57
2018-09-26T06:48:14.672Z,5.10
2018-09-26T06:50:45.542Z,4.87
2018-09-26T06:53:16.788Z,5.60
2018-09-26T06:55:48.112Z,5.47
2018-09-26T06:58:19.194Z,5.30
2018-09-26T07:00:50.027Z,4.50
2018-09-26T07:03:27.794Z,4.93
2018-09-26T07:05:59.130Z,4.00
2018-09-26T07:08:29.810Z,4.43
2018-09-26T07:11:03.243Z,4.03
2018-09-26T07:13:34.137Z,5.10
2018-09-26T07:16:04.637Z,3.93
2018-09-26T07:18:40.988Z,4.40
2018-09-26T07:21:12.073Z,4.20
2018-09-26T07:23:43.967Z,4.20
2018-09-26T07:26:15.111Z,4.83
2018-09-26T07:28:44.859Z,5.13
2018-09-26T07:31:14.656Z,4.13
2018-09-26T07:33:45.656Z,4.63
2018-09-26T07:36:33.502Z,4.27
2018-09-26T07:39:04.057Z,4.37
2018-09-26T07:41:34.250Z,4.20
2018-09-26T07:44:11.755Z,4.23
2018-09-26T07:46:43.248Z,3.70
2018-09-26T07:49:15.337Z,3.23
2018-09-26T07:51:47.327Z,3.07
2018-09-26T07:54:18.558Z,2.87
2018-09-26T07:56:50.824Z,2.90
2018-09-26T07:59:21.815Z,2.97
2018-09-26T08:01:52.702Z,2.70
2018-09-26T08:04:22.831Z,2.37
2018-09-26T08:06:54.465Z,2.33
2018-09-26T08:09:25.424Z,2.10
2018-09-26T08:11:57.275Z,2.20
2018-09-26T08:14:27.875Z,2.53
2018-09-26T08:16:59.817Z,2.33
2018-09-26T08:19:36.152Z,1.90
2018-09-26T08:22:06.869Z,2.10
2018-09-26T08:24:38.807Z,2.00
2018-09-26T08:27:09.279Z,2.03
2018-09-26T08:29:39.763Z,2.37
2018-09-26T08:32:10.932Z,2.40
2018-09-26T08:34:46.635Z,2.20
2018-09-26T08:37:20.092Z,2.50
2018-09-26T08:39:50.570Z,1.80
2018-09-26T08:42:21.752Z,1.93
2018-09-26T08:44:52.738Z,2.20
2018-09-26T08:47:24.789Z,2.03
2018-09-26T08:49:54.929Z,1.90
2018-09-26T08:52:26.597Z,1.80
2018-09-26T08:54:58.258Z,2.10
2018-09-26T08:57:30.195Z,2.03
2018-09-26T09:00:00.283Z,1.70
2018-09-26T09:02:31.434Z,1.67
2018-09-26T09:05:05.631Z,1.80
2018-09-26T09:07:36.097Z,1.80
2018-09-26T09:10:06.715Z,1.60
2018-09-26T09:12:37.047Z,1.00
2018-09-26T09:15:10.632Z,1.33
2018-09-26T09:17:48.438Z,1.10
2018-09-26T09:20:24.985Z,1.17
2018-09-26T09:22:56.864Z,0.90
2018-09-26T09:25:29.855Z,1.27
2018-09-26T09:28:03.119Z,1.00
2018-09-26T09:30:33.218Z,1.17
2018-09-26T09:33:17.693Z,1.50
2018-09-26T09:35:48.864Z,1.10
2018-09-26T09:38:19.111Z,1.00
2018-09-26T09:40:49.386Z,1.00
2018-09-26T09:43:21.453Z,0.90
2018-09-26T09:45:52.825Z,1.13
2018-09-26T09:48:32.940Z,1.20
2018-09-26T09:51:03.866Z,1.13
2018-09-26T09:53:36.525Z,0.90
2018-09-26T09:56:10.175Z,0.80
2018-09-26T09:58:43.432Z,1.17
2018-09-26T10:01:19.360Z,1.30
2018-09-26T10:03:49.497Z,1.37
2018-09-26T10:06:20.640Z,1.10
2018-09-26T10:08:51.995Z,1.10
2018-09-26T10:11:22.185Z,1.13
2018-09-26T10:13:54.295Z,1.47
2018-09-26T10:16:24.838Z,1.20
2018-09-26T10:18:56.940Z,1.40
2018-09-26T10:21:29.421Z,0.97
2018-09-26T10:24:03.524Z,1.10
2018-09-26T10:26:44.644Z,1.20
2018-09-26T10:29:18.505Z,1.13
2018-09-26T10:31:53.903Z,1.20
2018-09-26T10:34:24.778Z,1.20
2018-09-26T10:39:32.941Z,1.20
2018-09-26T10:42:03.480Z,1.43
2018-09-26T10:44:35.460Z,1.20
2018-09-26T10:47:05.870Z,1.40
2018-09-26T10:49:36.721Z,1.23
2018-09-26T10:52:07.990Z,1.17
2018-09-26T10:54:38.338Z,1.07
2018-09-26T10:57:09.481Z,1.00
2018-09-26T10:59:41.889Z,1.20
2018-09-26T11:02:20.317Z,1.33
2018-09-26T11:04:51.840Z,1.10
2018-09-26T11:07:22.628Z,1.40
2018-09-26T11:09:53.813Z,1.40
2018-09-26T11:12:25.499Z,1.53
2018-09-26T11:14:57.764Z,1.10
2018-09-26T11:17:41.567Z,1.00
2018-09-26T11:20:17.261Z,1.10
2018-09-26T11:22:50.348Z,1.20
2018-09-26T11:25:20.785Z,1.20
2018-09-26T11:27:52.436Z,1.30
2018-09-26T11:30:22.764Z,1.40
2018-09-26T11:32:53.205Z,1.20
2018-09-26T11:35:24.399Z,1.27
2018-09-26T11:37:57.125Z,1.43
2018-09-26T11:40:27.590Z,1.00
2018-09-26T11:42:58.919Z,1.27
2018-09-26T11:45:31.022Z,1.53
2018-09-26T11:48:03.935Z,1.37
2018-09-26T11:50:37.245Z,1.20
2018-09-26T11:53:12.670Z,1.23
2018-09-26T11:55:43.743Z,1.20
2018-09-26T11:58:14.334Z,1.40
2018-09-26T12:00:45.744Z,1.20
2018-09-26T12:03:15.947Z,1.47
2018-09-26T12:05:47.859Z,0.90
2018-09-26T12:08:20.878Z,1.10
2018-09-26T12:10:51.808Z,1.40
2018-09-26T12:13:24.057Z,0.90
2018-09-26T12:15:54.532Z,1.50
2018-09-26T12:18:32.239Z,1.10
2018-09-26T12:21:02.698Z,1.00
2018-09-26T12:23:34.655Z,1.20
2018-09-26T12:26:05.005Z,1.00
2018-09-26T12:28:35.260Z,1.37
2018-09-26T12:31:08.562Z,1.07
2018-09-26T12:33:38.715Z,1.17
2018-09-26T12:36:09.171Z,1.27
2018-09-26T12:38:41.172Z,1.50
2018-09-26T12:41:16.249Z,1.13
2018-09-26T12:43:46.846Z,1.00
2018-09-26T12:46:19.590Z,1.10
2018-09-26T12:48:49.911Z,1.40
2018-09-26T12:51:19.993Z,1.43
2018-09-26T12:53:51.468Z,1.50
2018-09-26T12:56:22.914Z,1.20
2018-09-26T12:58:53.462Z,1.40
2018-09-26T13:01:24.994Z,1.50
2018-09-26T13:03:57.445Z,1.40
2018-09-26T13:06:27.874Z,1.10
2018-09-26T13:08:59.102Z,1.10
2018-09-26T13:11:30.692Z,1.27
2018-09-26T13:14:03.367Z,1.17
2018-09-26T13:16:35.441Z,1.53
2018-09-26T13:19:07.454Z,1.40
2018-09-26T13:21:38.719Z,1.50
2018-09-26T13:24:09.729Z,1.20
2018-09-26T13:26:42.980Z,1.43
2018-09-26T13:29:13.701Z,1.40
2018-09-26T13:31:44.896Z,1.53
2018-09-26T13:34:17.478Z,1.70
2018-09-26T13:36:48.415Z,1.60
2018-09-26T13:39:18.915Z,1.47
2018-09-26T13:41:51.111Z,1.57
2018-09-26T13:44:21.868Z,2.03
2018-09-26T13:46:52.723Z,1.07
2018-09-26T13:49:22.899Z,1.40
2018-09-26T13:51:54.647Z,1.50
2018-09-26T13:54:25.957Z,1.33
2018-09-26T13:56:56.719Z,1.13
2018-09-26T13:59:31.543Z,1.30
2018-09-26T14:02:03.336Z,1.27
2018-09-26T14:04:34.330Z,1.20
2018-09-26T14:07:11.536Z,2.27
2018-09-26T14:09:42.283Z,1.60
2018-09-26T14:12:13.906Z,1.33
2018-09-26T14:14:45.246Z,1.87
2018-09-26T14:17:20.564Z,1.23
2018-09-26T14:19:59.240Z,1.23
2018-09-26T14:22:29.739Z,1.10
2018-09-26T14:25:02.967Z,1.50
2018-09-26T14:27:34.529Z,1.20
2018-09-26T14:30:05.061Z,1.30
2018-09-26T14:32:36.566Z,1.27
2018-09-26T14:35:09.574Z,1.37
2018-09-26T14:37:40.659Z,1.00
2018-09-26T14:40:12.183Z,1.50
2018-09-26T14:42:42.925Z,1.30
2018-09-26T14:45:18.198Z,0.90
2018-09-26T14:47:50.366Z,1.23
2018-09-26T14:50:20.834Z,1.27
2018-09-26T14:52:51.549Z,1.20
2018-09-26T14:55:22.085Z,1.20
2018-09-26T14:57:52.764Z,1.40
2018-09-26T15:00:30.362Z,1.00
2018-09-26T15:03:02.173Z,1.10
2018-09-26T15:05:33.644Z,1.27
2018-09-26T15:08:04.464Z,1.17
2018-09-26T15:10:53.025Z,1.10
2018-09-26T15:13:46.789Z,1.07
2018-09-26T15:16:17.412Z,1.20
2018-09-26T15:18:49.435Z,1.03
2018-09-26T15:21:20.596Z,1.03
2018-09-26T15:23:51.385Z,1.30
2018-09-26T15:26:21.601Z,1.20
2018-09-26T15:28:53.517Z,1.30
2018-09-26T15:31:24.329Z,1.40
2018-09-26T15:33:54.556Z,1.27
2018-09-26T15:36:25.750Z,1.33
2018-09-26T15:38:57.058Z,1.13
2018-09-26T15:41:27.407Z,1.43
2018-09-26T15:44:00.300Z,1.73
2018-09-26T15:46:31.853Z,1.10
2018-09-26T15:49:04.273Z,1.70
2018-09-26T15:51:35.638Z,1.40
2018-09-26T15:54:06.186Z,1.30
2018-09-26T15:56:37.112Z,1.40
2018-09-26T15:59:07.738Z,1.70
2018-09-26T16:01:38.581Z,2.30
2018-09-26T16:04:10.088Z,1.80
2018-09-26T16:06:41.686Z,1.70
2018-09-26T16:09:12.114Z,2.00
2018-09-26T16:11:44.014Z,1.70
2018-09-26T16:14:14.797Z,1.40
2018-09-26T16:16:45.506Z,1.70
2018-09-26T16:19:17.412Z,1.60
2018-09-26T16:21:48.582Z,1.70
2018-09-26T16:24:19.391Z,1.83
2018-09-26T16:26:50.681Z,1.90
2018-09-26T16:29:22.935Z,1.70
2018-09-26T16:31:53.530Z,2.00
2018-09-26T16:34:24.432Z,2.30
2018-09-26T16:36:55.907Z,2.20
2018-09-26T16:39:26.187Z,1.90
2018-09-26T16:41:57.727Z,1.70
2018-09-26T16:44:27.555Z,2.00
2018-09-26T16:47:02.856Z,2.30
2018-09-26T16:49:34.079Z,2.07
2018-09-26T16:52:05.594Z,2.07
2018-09-26T16:54:36.256Z,2.13
2018-09-26T16:57:08.747Z,2.33
2018-09-26T16:59:39.634Z,2.13
2018-09-26T17:02:10.145Z,2.23
2018-09-26T17:04:40.760Z,2.83
2018-09-26T17:07:12.534Z,2.40
2018-09-26T17:09:43.428Z,2.70
2018-09-26T17:12:15.177Z,2.50
2018-09-26T17:14:46.772Z,1.73
2018-09-26T17:17:18.655Z,2.60
2018-09-26T17:20:04.284Z,1.80
2018-09-26T17:22:47.026Z,1.90
2018-09-26T17:25:18.620Z,1.73
2018-09-26T17:27:55.413Z,1.80
2018-09-26T17:30:26.209Z,1.60
2018-09-26T17:33:00.467Z,1.80
2018-09-26T17:35:35.239Z,1.40
2018-09-26T17:38:09.147Z,1.60
2018-09-26T17:40:39.964Z,2.17
2018-09-26T17:43:12.514Z,2.00
2018-09-26T17:45:45.220Z,1.37
2018-09-26T17:48:16.242Z,3.20
2018-09-26T17:50:47.858Z,2.70
2018-09-26T17:53:18.196Z,2.77
2018-09-26T17:55:48.822Z,3.00
2018-09-26T17:58:22.495Z,2.87
2018-09-26T18:00:54.441Z,2.03
2018-09-26T18:03:26.598Z,2.90
2018-09-26T18:06:01.325Z,3.20
2018-09-26T18:08:33.427Z,3.40
2018-09-26T18:11:04.744Z,3.90
2018-09-26T18:13:37.993Z,2.80
2018-09-26T18:16:09.184Z,5.20
2018-09-26T18:18:40.511Z,2.93
2018-09-26T18:21:12.300Z,3.07
2018-09-26T18:23:43.548Z,4.27
2018-09-26T18:26:13.864Z,2.90
2018-09-26T18:28:45.734Z,3.00
2018-09-26T18:31:18.265Z,4.43
2018-09-26T18:33:50.257Z,4.20
2018-09-26T18:36:20.951Z,4.30
2018-09-26T18:38:51.617Z,4.00
2018-09-26T18:41:23.565Z,3.17
2018-09-26T18:43:54.486Z,3.73
2018-09-26T18:46:26.124Z,3.87
2018-09-26T18:49:01.610Z,4.20
2018-09-26T18:51:32.700Z,4.20
2018-09-26T18:54:05.416Z,4.83
2018-09-26T18:56:38.879Z,4.37
2018-09-26T18:59:09.477Z,5.07
2018-09-26T19:01:40.972Z,5.03
2018-09-26T19:04:12.372Z,5.43
2018-09-26T19:06:45.394Z,5.20
2018-09-26T19:09:16.371Z,4.57
2018-09-26T19:11:50.700Z,4.97
2018-09-26T19:14:22.186Z,4.37
2018-09-26T19:16:52.752Z,4.10
2018-09-26T19:19:25.404Z,4.07
2018-09-26T19:21:56.212Z,4.53
2018-09-26T19:24:28.273Z,4.07
2018-09-26T19:27:02.522Z,3.90
2018-09-26T19:29:33.944Z,4.80
2018-09-26T19:32:04.749Z,5.63
2018-09-26T19:34:37.166Z,4.80
2018-09-26T19:37:07.787Z,5.03
2018-09-26T19:39:42.455Z,4.53
2018-09-26T19:42:13.255Z,4.37
2018-09-26T19:44:44.188Z,4.83
2018-09-26T19:47:14.687Z,3.80
2018-09-26T19:49:46.890Z,4.87
2018-09-26T19:52:18.619Z,4.40
2018-09-26T19:54:49.826Z,4.37
2018-09-26T19:57:25.869Z,4.67
2018-09-26T19:59:56.796Z,4.27
2018-09-26T20:02:32.587Z,4.20
2018-09-26T20:05:03.146Z,4.37
2018-09-26T20:07:38.854Z,4.70
2018-09-26T20:10:16.128Z,4.50
2018-09-26T20:12:48.571Z,4.43
2018-09-26T20:15:21.144Z,4.40
2018-09-26T20:17:55.420Z,4.70
2018-09-26T20:20:25.977Z,4.53
2018-09-26T20:22:59.267Z,4.80
2018-09-26T20:25:29.079Z,4.77
2018-09-26T20:27:59.443Z,4.30
2018-09-26T20:30:33.556Z,5.40
2018-09-26T20:33:04.788Z,4.63
2018-09-26T20:35:37.704Z,5.30
2018-09-26T20:38:08.818Z,4.93
2018-09-26T20:40:39.456Z,5.27
2018-09-26T20:43:09.833Z,4.23
2018-09-26T20:45:40.035Z,4.80
2018-09-26T20:48:11.812Z,4.77
2018-09-26T20:50:42.282Z,4.93
2018-09-26T20:53:14.163Z,4.87
2018-09-26T20:55:45.670Z,5.20
2018-09-26T20:58:16.758Z,5.67
2018-09-26T21:00:47.457Z,5.77
2018-09-26T21:03:17.777Z,5.83
2018-09-26T21:05:49.928Z,5.20
2018-09-26T21:08:20.472Z,6.17
2018-09-26T21:10:50.802Z,5.97
2018-09-26T21:13:21.632Z,5.70
2018-09-26T21:15:52.119Z,5.93
2018-09-26T21:18:23.886Z,5.10
2018-09-26T21:20:58.283Z,5.30
2018-09-26T21:23:30.970Z,4.77
2018-09-26T21:26:04.635Z,4.33
2018-09-26T21:28:36.182Z,4.73
2018-09-26T21:31:12.951Z,5.00
2018-09-26T21:33:43.170Z,4.87
2018-09-26T21:36:13.693Z,4.30
2018-09-26T21:38:44.823Z,3.97
2018-09-26T21:41:16.840Z,4.67
2018-09-26T21:43:48.619Z,4.63
2018-09-26T21:46:19.059Z,5.03
2018-09-26T21:48:50.852Z,4.17
2018-09-26T21:51:22.111Z,4.40
2018-09-26T21:53:53.347Z,4.00
2018-09-26T21:56:54.960Z,4.50
2018-09-26T21:59:26.077Z,4.60
2018-09-26T22:01:58.851Z,4.20
2018-09-26T22:04:30.203Z,4.13
2018-09-26T22:07:00.707Z,4.53
2018-09-26T22:09:31.967Z,4.00
2018-09-26T22:12:03.242Z,4.20
2018-09-26T22:14:33.586Z,4.77
2018-09-26T22:17:04.090Z,4.13
2018-09-26T22:19:34.683Z,5.00
2018-09-26T22:22:06.456Z,5.03
2018-09-26T22:24:39.944Z,5.07
2018-09-26T22:27:11.612Z,5.10
2018-09-26T22:29:42.085Z,4.60
2018-09-26T22:32:12.140Z,4.70
2018-09-26T22:34:42.380Z,4.90
2018-09-26T22:37:12.433Z,4.90
2018-09-26T22:39:42.517Z,5.37
2018-09-26T22:42:13.082Z,5.57
2018-09-26T22:44:43.577Z,5.23
2018-09-26T22:47:13.843Z,5.17
2018-09-26T22:49:45.184Z,5.57
2018-09-26T22:52:15.478Z,4.70
2018-09-26T22:54:45.624Z,5.17
2018-09-26T22:57:15.981Z,5.37
2018-09-26T22:59:46.300Z,5.23
2018-09-26T23:02:16.478Z,5.37
2018-09-26T23:04:46.491Z,5.10
2018-09-26T23:07:22.167Z,5.30
2018-09-26T23:09:53.096Z,5.33
2018-09-26T23:12:23.290Z,5.43
2018-09-26T23:14:53.597Z,5.60
2018-09-26T23:17:33.291Z,5.17
2018-09-26T23:20:04.518Z,5.07
2018-09-26T23:22:34.681Z,4.63
2018-09-26T23:25:05.352Z,5.30
2018-09-26T23:27:35.721Z,5.20
2018-09-26T23:30:06.348Z,5.03
2018-09-26T23:32:37.148Z,5.07
2018-09-26T23:35:07.508Z,5.03
2018-09-26T23:37:41.813Z,5.27
2018-09-26T23:40:12.107Z,5.27
2018-09-26T23:42:43.943Z,4.93
2018-09-26T23:45:14.222Z,5.40
2018-09-26T23:47:44.045Z,5.33
2018-09-26T23:50:14.567Z,5.27
2018-09-26T23:52:44.630Z,4.77
2018-09-26T23:55:14.864Z,5.00
2018-09-26T23:57:45.030Z,5.13
